sensor_id;sensor_type;location;lat;lon;timestamp;temperature;humidity
26035;DHT22;13809;48.632;11.576;2022-10-31T00:02:33;14.80;42.30
26035;DHT22;13809;48.632;11.576;2022-10-31T00:07:37;14.70;42.40
26035;DHT22;13809;48.632;11.576;2022-10-31T00:12:40;14.70;42.60
26035;DHT22;13809;48.632;11.576;2022-10-31T00:17:43;14.70;42.50
26035;DHT22;13809;48.632;11.576;2022-10-31T00:22:48;14.60;42.60
26035;DHT22;13809;48.632;11.576;2022-10-31T00:27:51;14.60;42.90
26035;DHT22;13809;48.632;11.576;2022-10-31T00:32:54;14.60;42.60
26035;DHT22;13809;48.632;11.576;2022-10-31T00:37:59;14.60;42.50
26035;DHT22;13809;48.632;11.576;2022-10-31T00:43:02;14.60;42.70
26035;DHT22;13809;48.632;11.576;2022-10-31T00:48:06;14.50;42.40
26035;DHT22;13809;48.632;11.576;2022-10-31T00:53:10;14.50;42.40
26035;DHT22;13809;48.632;11.576;2022-10-31T00:58:13;14.50;42.50
26035;DHT22;13809;48.632;11.576;2022-10-31T01:03:17;14.50;42.50
26035;DHT22;13809;48.632;11.576;2022-10-31T01:08:21;14.50;42.60
26035;DHT22;13809;48.632;11.576;2022-10-31T01:13:24;14.40;42.70
26035;DHT22;13809;48.632;11.576;2022-10-31T01:18:27;14.40;42.70
26035;DHT22;13809;48.632;11.576;2022-10-31T01:23:32;14.40;42.60
26035;DHT22;13809;48.632;11.576;2022-10-31T01:28:37;14.40;42.70
26035;DHT22;13809;48.632;11.576;2022-10-31T01:33:40;14.30;42.70
26035;DHT22;13809;48.632;11.576;2022-10-31T01:38:45;14.30;42.70
26035;DHT22;13809;48.632;11.576;2022-10-31T01:43:51;14.30;42.80
26035;DHT22;13809;48.632;11.576;2022-10-31T01:48:55;14.20;42.90
26035;DHT22;13809;48.632;11.576;2022-10-31T01:54:06;14.20;42.60
26035;DHT22;13809;48.632;11.576;2022-10-31T01:59:11;14.20;42.70
26035;DHT22;13809;48.632;11.576;2022-10-31T02:04:17;14.20;42.60
26035;DHT22;13809;48.632;11.576;2022-10-31T02:09:23;14.10;42.60
26035;DHT22;13809;48.632;11.576;2022-10-31T02:14:27;14.10;42.60
26035;DHT22;13809;48.632;11.576;2022-10-31T02:19:37;14.00;42.60
26035;DHT22;13809;48.632;11.576;2022-10-31T02:24:58;14.00;42.70
26035;DHT22;13809;48.632;11.576;2022-10-31T02:30:08;13.90;42.70
26035;DHT22;13809;48.632;11.576;2022-10-31T02:35:19;13.80;42.50
26035;DHT22;13809;48.632;11.576;2022-10-31T02:40:27;13.80;42.70
26035;DHT22;13809;48.632;11.576;2022-10-31T02:45:38;13.70;42.90
26035;DHT22;13809;48.632;11.576;2022-10-31T02:50:48;13.70;43.20
26035;DHT22;13809;48.632;11.576;2022-10-31T02:55:59;13.60;43.10
26035;DHT22;13809;48.632;11.576;2022-10-31T03:06:45;13.60;43.30
26035;DHT22;13809;48.632;11.576;2022-10-31T03:11:56;13.70;43.50
26035;DHT22;13809;48.632;11.576;2022-10-31T03:17:04;13.70;43.90
26035;DHT22;13809;48.632;11.576;2022-10-31T03:22:16;13.80;43.80
26035;DHT22;13809;48.632;11.576;2022-10-31T03:27:23;13.80;44.10
26035;DHT22;13809;48.632;11.576;2022-10-31T03:32:30;13.80;44.00
26035;DHT22;13809;48.632;11.576;2022-10-31T03:37:37;13.80;44.10
26035;DHT22;13809;48.632;11.576;2022-10-31T03:42:44;13.80;44.40
26035;DHT22;13809;48.632;11.576;2022-10-31T03:47:49;13.80;44.30
26035;DHT22;13809;48.632;11.576;2022-10-31T03:52:58;13.80;44.80
26035;DHT22;13809;48.632;11.576;2022-10-31T03:58:09;13.80;44.80
26035;DHT22;13809;48.632;11.576;2022-10-31T04:03:17;13.80;44.50
26035;DHT22;13809;48.632;11.576;2022-10-31T04:08:26;13.90;44.90
26035;DHT22;13809;48.632;11.576;2022-10-31T04:13:33;13.80;45.00
26035;DHT22;13809;48.632;11.576;2022-10-31T04:18:38;13.90;45.20
26035;DHT22;13809;48.632;11.576;2022-10-31T04:23:43;13.90;44.60
26035;DHT22;13809;48.632;11.576;2022-10-31T04:28:46;13.90;45.00
26035;DHT22;13809;48.632;11.576;2022-10-31T04:33:49;13.90;44.70
26035;DHT22;13809;48.632;11.576;2022-10-31T04:38:53;13.90;44.80
26035;DHT22;13809;48.632;11.576;2022-10-31T04:43:56;13.90;45.30
26035;DHT22;13809;48.632;11.576;2022-10-31T04:48:59;13.90;45.00
26035;DHT22;13809;48.632;11.576;2022-10-31T04:54:04;13.90;45.10
26035;DHT22;13809;48.632;11.576;2022-10-31T04:59:07;13.90;45.50
26035;DHT22;13809;48.632;11.576;2022-10-31T05:04:10;13.80;45.00
26035;DHT22;13809;48.632;11.576;2022-10-31T05:09:15;13.80;45.30
26035;DHT22;13809;48.632;11.576;2022-10-31T05:14:18;13.80;45.70
26035;DHT22;13809;48.632;11.576;2022-10-31T05:19:21;13.80;45.40
26035;DHT22;13809;48.632;11.576;2022-10-31T05:24:25;13.70;45.60
26035;DHT22;13809;48.632;11.576;2022-10-31T05:29:28;13.70;46.20
26035;DHT22;13809;48.632;11.576;2022-10-31T05:34:35;13.70;45.90
26035;DHT22;13809;48.632;11.576;2022-10-31T05:39:39;13.80;46.00
26035;DHT22;13809;48.632;11.576;2022-10-31T05:44:42;13.80;46.30
26035;DHT22;13809;48.632;11.576;2022-10-31T05:49:45;13.90;46.00
26035;DHT22;13809;48.632;11.576;2022-10-31T05:54:49;13.90;46.00
26035;DHT22;13809;48.632;11.576;2022-10-31T05:59:52;13.90;46.50
26035;DHT22;13809;48.632;11.576;2022-10-31T06:04:56;13.90;46.20
26035;DHT22;13809;48.632;11.576;2022-10-31T06:10:01;14.00;46.40
26035;DHT22;13809;48.632;11.576;2022-10-31T06:15:05;14.00;46.90
26035;DHT22;13809;48.632;11.576;2022-10-31T06:20:09;14.00;46.70
26035;DHT22;13809;48.632;11.576;2022-10-31T06:25:14;14.10;46.70
26035;DHT22;13809;48.632;11.576;2022-10-31T06:30:17;14.10;46.90
26035;DHT22;13809;48.632;11.576;2022-10-31T06:35:20;14.10;46.50
26035;DHT22;13809;48.632;11.576;2022-10-31T06:40:25;14.20;46.60
26035;DHT22;13809;48.632;11.576;2022-10-31T06:45:28;14.20;46.90
26035;DHT22;13809;48.632;11.576;2022-10-31T06:50:32;14.20;46.80
26035;DHT22;13809;48.632;11.576;2022-10-31T06:55:36;14.30;46.70
26035;DHT22;13809;48.632;11.576;2022-10-31T07:00:39;14.30;47.30
26035;DHT22;13809;48.632;11.576;2022-10-31T07:05:43;14.30;46.70
26035;DHT22;13809;48.632;11.576;2022-10-31T07:10:52;14.30;46.90
26035;DHT22;13809;48.632;11.576;2022-10-31T07:16:00;14.30;48.00
26035;DHT22;13809;48.632;11.576;2022-10-31T07:21:04;14.40;47.90
26035;DHT22;13809;48.632;11.576;2022-10-31T07:26:09;14.40;46.90
26035;DHT22;13809;48.632;11.576;2022-10-31T07:31:12;14.40;47.70
26035;DHT22;13809;48.632;11.576;2022-10-31T07:36:15;14.40;47.20
26035;DHT22;13809;48.632;11.576;2022-10-31T07:41:21;14.50;47.40
26035;DHT22;13809;48.632;11.576;2022-10-31T07:46:24;14.50;47.90
26035;DHT22;13809;48.632;11.576;2022-10-31T07:51:27;14.50;47.20
26035;DHT22;13809;48.632;11.576;2022-10-31T07:56:31;14.50;47.40
26035;DHT22;13809;48.632;11.576;2022-10-31T08:01:34;14.60;48.20
26035;DHT22;13809;48.632;11.576;2022-10-31T08:06:37;14.60;47.60
26035;DHT22;13809;48.632;11.576;2022-10-31T08:11:42;14.60;47.70
26035;DHT22;13809;48.632;11.576;2022-10-31T08:16:45;14.70;48.30
26035;DHT22;13809;48.632;11.576;2022-10-31T08:21:50;14.80;47.70
26035;DHT22;13809;48.632;11.576;2022-10-31T08:26:55;14.70;48.50
26035;DHT22;13809;48.632;11.576;2022-10-31T08:31:58;14.80;48.60
26035;DHT22;13809;48.632;11.576;2022-10-31T08:37:01;14.90;48.20
26035;DHT22;13809;48.632;11.576;2022-10-31T08:42:06;14.90;48.20
26035;DHT22;13809;48.632;11.576;2022-10-31T08:47:09;14.90;48.80
26035;DHT22;13809;48.632;11.576;2022-10-31T08:52:12;15.00;48.60
26035;DHT22;13809;48.632;11.576;2022-10-31T08:57:18;15.00;48.40
26035;DHT22;13809;48.632;11.576;2022-10-31T09:02:21;15.10;49.00
26035;DHT22;13809;48.632;11.576;2022-10-31T09:07:24;15.10;48.60
26035;DHT22;13809;48.632;11.576;2022-10-31T09:12:29;15.20;48.80
26035;DHT22;13809;48.632;11.576;2022-10-31T09:17:32;15.20;49.40
26035;DHT22;13809;48.632;11.576;2022-10-31T09:22:35;15.30;48.90
26035;DHT22;13809;48.632;11.576;2022-10-31T09:27:39;15.30;49.00
26035;DHT22;13809;48.632;11.576;2022-10-31T09:32:42;15.30;49.80
26035;DHT22;13809;48.632;11.576;2022-10-31T09:37:45;15.40;49.10
26035;DHT22;13809;48.632;11.576;2022-10-31T09:42:56;15.50;50.00
26035;DHT22;13809;48.632;11.576;2022-10-31T09:48:25;15.50;50.90
26035;DHT22;13809;48.632;11.576;2022-10-31T09:53:33;15.50;51.30
26035;DHT22;13809;48.632;11.576;2022-10-31T09:58:42;15.60;50.70
26035;DHT22;13809;48.632;11.576;2022-10-31T10:03:50;15.60;51.20
26035;DHT22;13809;48.632;11.576;2022-10-31T10:08:56;15.70;51.20
26035;DHT22;13809;48.632;11.576;2022-10-31T10:14:11;15.80;50.20
26035;DHT22;13809;48.632;11.576;2022-10-31T10:19:30;15.90;52.00
26035;DHT22;13809;48.632;11.576;2022-10-31T10:24:59;15.90;51.60
26035;DHT22;13809;48.632;11.576;2022-10-31T10:30:13;16.00;52.00
26035;DHT22;13809;48.632;11.576;2022-10-31T10:35:22;16.00;51.80
26035;DHT22;13809;48.632;11.576;2022-10-31T10:40:27;16.10;51.60
26035;DHT22;13809;48.632;11.576;2022-10-31T10:45:32;16.20;51.00
26035;DHT22;13809;48.632;11.576;2022-10-31T10:50:53;16.20;51.10
26035;DHT22;13809;48.632;11.576;2022-10-31T10:55:59;16.30;50.60
26035;DHT22;13809;48.632;11.576;2022-10-31T11:01:11;16.30;51.00
26035;DHT22;13809;48.632;11.576;2022-10-31T11:06:17;16.40;51.50
26035;DHT22;13809;48.632;11.576;2022-10-31T11:11:25;16.40;50.90
26035;DHT22;13809;48.632;11.576;2022-10-31T11:16:35;16.50;51.00
26035;DHT22;13809;48.632;11.576;2022-10-31T11:21:42;16.50;51.60
26035;DHT22;13809;48.632;11.576;2022-10-31T11:27:13;16.50;50.60
26035;DHT22;13809;48.632;11.576;2022-10-31T11:32:21;16.60;52.10
26035;DHT22;13809;48.632;11.576;2022-10-31T11:37:26;16.60;51.70
26035;DHT22;13809;48.632;11.576;2022-10-31T11:42:35;16.60;51.10
26035;DHT22;13809;48.632;11.576;2022-10-31T11:47:44;16.70;51.80
26035;DHT22;13809;48.632;11.576;2022-10-31T11:52:50;16.70;51.30
26035;DHT22;13809;48.632;11.576;2022-10-31T11:57:55;16.70;51.10
26035;DHT22;13809;48.632;11.576;2022-10-31T12:03:11;16.60;50.80
26035;DHT22;13809;48.632;11.576;2022-10-31T12:08:15;16.70;52.20
26035;DHT22;13809;48.632;11.576;2022-10-31T12:13:30;16.70;50.70
26035;DHT22;13809;48.632;11.576;2022-10-31T12:18:53;16.70;52.90
26035;DHT22;13809;48.632;11.576;2022-10-31T12:24:10;16.80;52.20
26035;DHT22;13809;48.632;11.576;2022-10-31T12:29:26;16.80;51.90
26035;DHT22;13809;48.632;11.576;2022-10-31T12:34:52;16.80;51.90
26035;DHT22;13809;48.632;11.576;2022-10-31T12:40:15;16.80;52.30
26035;DHT22;13809;48.632;11.576;2022-10-31T12:45:44;16.90;52.00
26035;DHT22;13809;48.632;11.576;2022-10-31T12:50:59;16.90;52.30
26035;DHT22;13809;48.632;11.576;2022-10-31T12:56:18;17.00;52.00
26035;DHT22;13809;48.632;11.576;2022-10-31T13:01:29;17.00;52.00
26035;DHT22;13809;48.632;11.576;2022-10-31T13:06:36;17.10;51.70
26035;DHT22;13809;48.632;11.576;2022-10-31T13:11:48;17.10;51.80
26035;DHT22;13809;48.632;11.576;2022-10-31T13:16:55;17.10;51.80
26035;DHT22;13809;48.632;11.576;2022-10-31T13:22:05;17.20;51.70
26035;DHT22;13809;48.632;11.576;2022-10-31T13:27:14;17.20;52.20
26035;DHT22;13809;48.632;11.576;2022-10-31T13:32:19;17.30;52.30
26035;DHT22;13809;48.632;11.576;2022-10-31T13:37:29;17.30;51.30
26035;DHT22;13809;48.632;11.576;2022-10-31T13:42:45;17.40;52.20
26035;DHT22;13809;48.632;11.576;2022-10-31T13:47:57;17.40;51.90
26035;DHT22;13809;48.632;11.576;2022-10-31T13:53:13;17.50;51.80
26035;DHT22;13809;48.632;11.576;2022-10-31T13:58:26;17.50;52.10
26035;DHT22;13809;48.632;11.576;2022-10-31T14:03:31;17.50;51.80
26035;DHT22;13809;48.632;11.576;2022-10-31T14:08:57;17.50;51.00
26035;DHT22;13809;48.632;11.576;2022-10-31T14:14:00;17.50;51.10
26035;DHT22;13809;48.632;11.576;2022-10-31T14:19:06;17.50;50.60
26035;DHT22;13809;48.632;11.576;2022-10-31T14:24:16;17.50;51.20
26035;DHT22;13809;48.632;11.576;2022-10-31T14:29:33;17.40;51.50
26035;DHT22;13809;48.632;11.576;2022-10-31T14:34:39;17.40;51.10
26035;DHT22;13809;48.632;11.576;2022-10-31T14:39:53;17.40;51.50
26035;DHT22;13809;48.632;11.576;2022-10-31T14:45:10;17.40;51.90
26035;DHT22;13809;48.632;11.576;2022-10-31T14:50:24;17.40;52.00
26035;DHT22;13809;48.632;11.576;2022-10-31T14:55:32;17.40;51.90
26035;DHT22;13809;48.632;11.576;2022-10-31T15:00:36;17.40;51.30
26035;DHT22;13809;48.632;11.576;2022-10-31T15:05:42;17.40;51.10
26035;DHT22;13809;48.632;11.576;2022-10-31T15:10:49;17.40;51.70
26035;DHT22;13809;48.632;11.576;2022-10-31T15:15:54;17.30;51.50
26035;DHT22;13809;48.632;11.576;2022-10-31T15:20:58;17.30;51.70
26035;DHT22;13809;48.632;11.576;2022-10-31T15:26:04;17.30;51.40
26035;DHT22;13809;48.632;11.576;2022-10-31T15:31:14;17.30;52.00
26035;DHT22;13809;48.632;11.576;2022-10-31T15:36:20;17.40;52.40
26035;DHT22;13809;48.632;11.576;2022-10-31T15:41:34;17.40;51.80
26035;DHT22;13809;48.632;11.576;2022-10-31T15:46:37;17.40;52.20
26035;DHT22;13809;48.632;11.576;2022-10-31T15:51:41;17.40;52.10
26035;DHT22;13809;48.632;11.576;2022-10-31T15:56:45;17.40;51.50
26035;DHT22;13809;48.632;11.576;2022-10-31T16:02:00;17.40;52.00
26035;DHT22;13809;48.632;11.576;2022-10-31T16:07:13;17.40;52.40
26035;DHT22;13809;48.632;11.576;2022-10-31T16:12:29;17.40;52.50
26035;DHT22;13809;48.632;11.576;2022-10-31T16:17:32;17.40;51.90
26035;DHT22;13809;48.632;11.576;2022-10-31T16:22:37;17.30;51.40
26035;DHT22;13809;48.632;11.576;2022-10-31T16:27:48;17.40;51.80
26035;DHT22;13809;48.632;11.576;2022-10-31T16:32:57;17.30;52.40
26035;DHT22;13809;48.632;11.576;2022-10-31T16:38:02;17.30;51.70
26035;DHT22;13809;48.632;11.576;2022-10-31T16:43:11;17.30;51.20
26035;DHT22;13809;48.632;11.576;2022-10-31T16:48:16;17.20;51.90
26035;DHT22;13809;48.632;11.576;2022-10-31T16:53:20;17.20;51.40
26035;DHT22;13809;48.632;11.576;2022-10-31T16:58:28;17.10;51.30
26035;DHT22;13809;48.632;11.576;2022-10-31T17:03:32;17.10;51.60
26035;DHT22;13809;48.632;11.576;2022-10-31T17:08:35;17.10;51.00
26035;DHT22;13809;48.632;11.576;2022-10-31T17:13:39;17.10;51.00
26035;DHT22;13809;48.632;11.576;2022-10-31T17:18:42;17.00;51.20
26035;DHT22;13809;48.632;11.576;2022-10-31T17:23:47;17.00;51.00
26035;DHT22;13809;48.632;11.576;2022-10-31T17:28:52;16.90;51.10
26035;DHT22;13809;48.632;11.576;2022-10-31T17:33:55;16.90;51.50
26035;DHT22;13809;48.632;11.576;2022-10-31T17:39:04;16.90;51.20
26035;DHT22;13809;48.632;11.576;2022-10-31T17:44:11;16.90;51.10
26035;DHT22;13809;48.632;11.576;2022-10-31T17:49:15;16.80;51.30
26035;DHT22;13809;48.632;11.576;2022-10-31T17:54:18;16.80;51.10
26035;DHT22;13809;48.632;11.576;2022-10-31T17:59:24;16.80;51.30
26035;DHT22;13809;48.632;11.576;2022-10-31T18:04:30;16.80;51.60
26035;DHT22;13809;48.632;11.576;2022-10-31T18:09:34;16.70;51.10
26035;DHT22;13809;48.632;11.576;2022-10-31T18:14:38;16.60;51.10
26035;DHT22;13809;48.632;11.576;2022-10-31T18:19:48;16.60;51.70
26035;DHT22;13809;48.632;11.576;2022-10-31T18:24:52;16.60;51.50
26035;DHT22;13809;48.632;11.576;2022-10-31T18:30:03;16.60;51.70
26035;DHT22;13809;48.632;11.576;2022-10-31T18:35:07;16.60;51.80
26035;DHT22;13809;48.632;11.576;2022-10-31T18:40:10;16.60;51.50
26035;DHT22;13809;48.632;11.576;2022-10-31T18:45:15;16.60;51.90
26035;DHT22;13809;48.632;11.576;2022-10-31T18:50:38;16.60;51.10
26035;DHT22;13809;48.632;11.576;2022-10-31T18:55:42;16.60;50.40
26035;DHT22;13809;48.632;11.576;2022-10-31T19:00:52;16.50;50.10
26035;DHT22;13809;48.632;11.576;2022-10-31T19:05:55;16.40;50.40
26035;DHT22;13809;48.632;11.576;2022-10-31T19:11:03;16.30;50.40
26035;DHT22;13809;48.632;11.576;2022-10-31T19:16:10;16.20;50.90
26035;DHT22;13809;48.632;11.576;2022-10-31T19:21:15;16.20;51.30
26035;DHT22;13809;48.632;11.576;2022-10-31T19:26:18;16.20;51.20
26035;DHT22;13809;48.632;11.576;2022-10-31T19:31:23;16.20;50.90
26035;DHT22;13809;48.632;11.576;2022-10-31T19:36:26;16.20;51.10
26035;DHT22;13809;48.632;11.576;2022-10-31T19:41:30;16.20;50.60
26035;DHT22;13809;48.632;11.576;2022-10-31T19:46:34;16.10;50.80
26035;DHT22;13809;48.632;11.576;2022-10-31T19:51:54;16.10;51.20
26035;DHT22;13809;48.632;11.576;2022-10-31T19:56:57;16.10;50.90
26035;DHT22;13809;48.632;11.576;2022-10-31T20:02:02;16.10;50.70
26035;DHT22;13809;48.632;11.576;2022-10-31T20:07:05;16.10;51.20
26035;DHT22;13809;48.632;11.576;2022-10-31T20:12:08;16.00;51.00
26035;DHT22;13809;48.632;11.576;2022-10-31T20:17:13;16.00;51.00
26035;DHT22;13809;48.632;11.576;2022-10-31T20:22:16;16.00;51.20
26035;DHT22;13809;48.632;11.576;2022-10-31T20:27:19;16.00;51.10
26035;DHT22;13809;48.632;11.576;2022-10-31T20:32:23;16.00;51.10
26035;DHT22;13809;48.632;11.576;2022-10-31T20:37:26;16.00;51.10
26035;DHT22;13809;48.632;11.576;2022-10-31T20:42:30;16.00;51.00
26035;DHT22;13809;48.632;11.576;2022-10-31T20:47:34;15.90;50.70
26035;DHT22;13809;48.632;11.576;2022-10-31T20:52:37;15.90;51.10
26035;DHT22;13809;48.632;11.576;2022-10-31T20:57:41;15.80;51.00
26035;DHT22;13809;48.632;11.576;2022-10-31T21:02:45;15.80;50.50
26035;DHT22;13809;48.632;11.576;2022-10-31T21:07:49;15.80;50.70
26035;DHT22;13809;48.632;11.576;2022-10-31T21:12:56;15.70;50.10
26035;DHT22;13809;48.632;11.576;2022-10-31T21:18:02;15.60;49.60
26035;DHT22;13809;48.632;11.576;2022-10-31T21:23:05;15.60;50.00
26035;DHT22;13809;48.632;11.576;2022-10-31T21:28:09;15.50;50.10
26035;DHT22;13809;48.632;11.576;2022-10-31T21:33:14;15.50;50.70
26035;DHT22;13809;48.632;11.576;2022-10-31T21:38:18;15.50;50.70
26035;DHT22;13809;48.632;11.576;2022-10-31T21:43:21;15.50;50.40
26035;DHT22;13809;48.632;11.576;2022-10-31T21:48:26;15.40;50.40
26035;DHT22;13809;48.632;11.576;2022-10-31T21:53:30;15.30;50.50
26035;DHT22;13809;48.632;11.576;2022-10-31T21:58:51;15.30;50.60
26035;DHT22;13809;48.632;11.576;2022-10-31T22:03:56;15.20;50.50
26035;DHT22;13809;48.632;11.576;2022-10-31T22:09:01;15.20;51.10
26035;DHT22;13809;48.632;11.576;2022-10-31T22:14:04;15.10;51.20
26035;DHT22;13809;48.632;11.576;2022-10-31T22:19:10;15.10;50.80
26035;DHT22;13809;48.632;11.576;2022-10-31T22:24:14;15.20;50.80
26035;DHT22;13809;48.632;11.576;2022-10-31T22:29:19;15.10;50.30
26035;DHT22;13809;48.632;11.576;2022-10-31T22:34:25;15.10;50.30
26035;DHT22;13809;48.632;11.576;2022-10-31T22:39:28;15.10;50.70
26035;DHT22;13809;48.632;11.576;2022-10-31T22:44:31;15.00;50.70
26035;DHT22;13809;48.632;11.576;2022-10-31T22:49:35;15.10;50.70
26035;DHT22;13809;48.632;11.576;2022-10-31T22:54:38;15.10;50.80
26035;DHT22;13809;48.632;11.576;2022-10-31T22:59:41;15.10;50.70
26035;DHT22;13809;48.632;11.576;2022-10-31T23:04:46;15.10;50.80
26035;DHT22;13809;48.632;11.576;2022-10-31T23:09:49;15.10;50.60
26035;DHT22;13809;48.632;11.576;2022-10-31T23:14:52;15.00;50.60
26035;DHT22;13809;48.632;11.576;2022-10-31T23:19:56;15.00;50.40
26035;DHT22;13809;48.632;11.576;2022-10-31T23:25:00;14.90;50.50
26035;DHT22;13809;48.632;11.576;2022-10-31T23:30:04;14.90;50.20
26035;DHT22;13809;48.632;11.576;2022-10-31T23:35:09;14.80;50.20
26035;DHT22;13809;48.632;11.576;2022-10-31T23:40:12;14.80;50.60
26035;DHT22;13809;48.632;11.576;2022-10-31T23:45:15;14.80;50.20
26035;DHT22;13809;48.632;11.576;2022-10-31T23:50:20;14.70;50.00
26035;DHT22;13809;48.632;11.576;2022-10-31T23:55:23;14.70;50.40
